Aeroporto :
LOGIN :

Iscrizione | Disclaimer

   EN    FR    IT 

 










Sommario :    VFR   VFR Marginale   IFR   IFR Intensivo   IFR Molto Intensivo
Visibilità : 
Base nubi : 
>= 8 km
>= 3000ft
5 / 8 km
1000 / 3000 ft
1500m / 5 km
500 / 1000 ft
800 / 1500m
200 / 500 ft
< 800m
< 200 ft
Simboli :   Temporali  Nebbia  Neve Forte  Precipitazioni Forti  Vento > 20 kt
SIGMETs :   Varie  Temporali  Ghiacco  Turbolenza  Onda orograficha  Ceneri Vulcaniche






- Altitudine del aeroporto : 2265 ft
- Codice IATA : CZL


DABC - Mohamed Boudiaf Int. Constantine

ULTIMO METAR :
  • 122300Z 23012KT 9999 SCT026 SCT040 07/03 Q1010

METARs OBSOLETI :
  • 122230Z 24010KT 9999 SCT026 SCT040 07/03 Q1009
  • 122200Z 25010KT 9999 SCT026 SCT040 07/03 Q1010
  • 122130Z 23013KT 9999 SCT026 07/03 Q1009
  • 122100Z 24007KT 9999 FEW023 SCT026 08/03 Q1009
  • 122030Z 27011KT 9999 FEW026 07/03 Q1009

TAF TAF DABC
Valido dal 12 a 18 ore il 13 a 18 ore UTC


121700Z 1218/1318 30014KT 8000 SCT013 SCT023
TEMPO 1218/1306 FEW020TCU
PROB40
TEMPO 1218/1221 30015G30KT
BECMG 1220/1222 26008KT
TEMPO 1312/1318 FEW020TCU



MetMap, La meteo Aeronautica in un colpo d'occhio ! - Copyright ORBIFLY Dicembre 2007 - Disclaimer

ORBIFLY MET'MAP TEAM :

Programmazione e sviluppo : Alexandra Zaïnal
Concezione e sviluppo : Baudouin d'Aumeries
Co-Programmazione e sviluppo : Marc-Olivier Méhu
Supporto tecnico e logistico : Manuel Goepfert
Aiuto per la traduzione : Arnaldo La Scala

Contatto : metmap@orbifly.com




FONTI E CREDITI :

   NOAA